Time;durP1;ratioP1;P1;durP2;ratioP2;P2;SDS_P1;SDS_P2;PMS_P1;PMS_P2;Temp;Humidity;BMP_temperature;BMP_pressure;BME280_temperature;BME280_humidity;BME280_pressure;Samples;Min_cycle;Max_cycle;Signal;HPM_P1;HPM_P2
2023/05/15 00:02:09;;;;;;;0.10;0.10;;;11.70;99.90;;;;;;4993124;28;20186;-83
2023/05/15 00:04:34;;;;;;;0.10;0.10;;;11.60;99.90;;;;;;4952854;28;20186;-82
2023/05/15 00:07:00;;;;;;;0.10;0.10;;;11.70;99.90;;;;;;4967472;28;20872;-81
2023/05/15 00:09:26;;;;;;;0.00;0.00;;;11.80;99.90;;;;;;4967654;28;20200;-82
2023/05/15 00:11:51;;;;;;;0.03;0.03;;;11.70;99.90;;;;;;4961532;28;20218;-82
2023/05/15 00:14:17;;;;;;;0.10;0.10;;;11.70;99.90;;;;;;4960920;28;20559;-82
2023/05/15 00:16:42;;;;;;;0.00;0.00;;;11.70;99.90;;;;;;4966548;28;20189;-82
2023/05/15 00:19:08;;;;;;;0.00;0.00;;;11.70;99.90;;;;;;4970576;28;20555;-82
2023/05/15 00:21:33;;;;;;;0.00;0.00;;;11.70;99.90;;;;;;4949017;28;20202;-82
2023/05/15 00:23:59;;;;;;;0.00;0.00;;;11.40;99.90;;;;;;4992183;28;20198;-82
2023/05/15 00:26:25;;;;;;;0.07;0.07;;;11.40;99.90;;;;;;4985562;28;20192;-82
2023/05/15 00:28:50;;;;;;;0.00;0.00;;;11.50;99.90;;;;;;4953680;28;20949;-83
2023/05/15 00:31:16;;;;;;;0.07;0.07;;;11.50;99.90;;;;;;4993155;28;20590;-82
2023/05/15 00:33:42;;;;;;;0.00;0.00;;;11.50;99.90;;;;;;4982138;28;20193;-82
2023/05/15 00:36:07;;;;;;;0.10;0.10;;;11.50;99.90;;;;;;4968847;28;20226;-83
2023/05/15 00:38:33;;;;;;;0.00;0.00;;;11.40;99.90;;;;;;4977814;28;20193;-83
2023/05/15 00:41:00;;;;;;;0.00;0.00;;;11.50;99.90;;;;;;4966173;28;20234;-83
2023/05/15 00:43:27;;;;;;;0.10;0.10;;;11.40;99.90;;;;;;4971439;28;20646;-83
2023/05/15 00:45:54;;;;;;;0.10;0.10;;;11.40;99.90;;;;;;4964809;28;20456;-83
2023/05/15 00:48:21;;;;;;;0.10;0.10;;;11.40;99.90;;;;;;4964992;28;20493;-82
2023/05/15 00:50:49;;;;;;;0.10;0.10;;;11.40;99.90;;;;;;4967117;28;20472;-83
2023/05/15 00:53:15;;;;;;;0.10;0.10;;;11.30;99.90;;;;;;4959295;28;20441;-83
2023/05/15 00:55:41;;;;;;;0.07;0.07;;;11.30;99.90;;;;;;4978557;28;21120;-83
2023/05/15 00:58:08;;;;;;;0.07;0.07;;;11.30;99.90;;;;;;4955845;28;20673;-83
2023/05/15 01:00:33;;;;;;;0.07;0.07;;;11.20;99.90;;;;;;4970456;28;20448;-83
2023/05/15 01:03:00;;;;;;;0.10;0.10;;;11.20;99.90;;;;;;4977789;28;20453;-83
2023/05/15 01:05:26;;;;;;;0.10;0.10;;;11.20;99.90;;;;;;4960342;28;20670;-82
2023/05/15 01:08:02;;;;;;;0.10;0.10;;;11.10;99.90;;;;;;4973952;28;20489;-83
2023/05/15 01:10:28;;;;;;;0.10;0.10;;;11.10;99.90;;;;;;4972611;28;20186;-83
2023/05/15 01:12:55;;;;;;;0.07;0.07;;;11.30;99.90;;;;;;4971880;28;20450;-83
2023/05/15 01:15:22;;;;;;;0.10;0.10;;;11.30;99.90;;;;;;4974858;28;20201;-83
2023/05/15 01:17:49;;;;;;;0.10;0.10;;;11.40;99.90;;;;;;4966195;28;20827;-83
2023/05/15 01:20:17;;;;;;;0.10;0.10;;;11.30;99.90;;;;;;4988563;28;20437;-83
2023/05/15 01:22:56;;;;;;;0.10;0.10;;;11.30;99.90;;;;;;4987157;28;20455;-83
2023/05/15 01:25:44;;;;;;;0.10;0.10;;;11.40;99.90;;;;;;4956369;28;20453;-83
2023/05/15 01:28:15;;;;;;;0.07;0.07;;;11.40;99.90;;;;;;4971838;28;20954;-83
2023/05/15 01:30:42;;;;;;;0.10;0.10;;;11.30;99.90;;;;;;4956771;28;20464;-83
2023/05/15 01:33:15;;;;;;;0.10;0.10;;;11.30;99.90;;;;;;4998777;28;20451;-83
2023/05/15 01:35:49;;;;;;;0.07;0.07;;;11.30;99.90;;;;;;4987341;28;20441;-83
2023/05/15 01:38:26;;;;;;;0.03;0.03;;;11.30;99.90;;;;;;4972841;28;20436;-83
2023/05/15 01:40:58;;;;;;;0.03;0.03;;;11.20;99.90;;;;;;4981364;28;20570;-83
2023/05/15 01:43:28;;;;;;;0.10;0.10;;;11.20;99.90;;;;;;4985308;28;20457;-83
2023/05/15 01:45:55;;;;;;;0.00;0.00;;;11.10;99.90;;;;;;4955170;28;20960;-82
2023/05/15 01:48:24;;;;;;;0.10;0.10;;;11.10;99.90;;;;;;4972234;28;20849;-83
2023/05/15 01:50:53;;;;;;;0.10;0.10;;;11.20;99.90;;;;;;4971240;28;20490;-83
2023/05/15 01:53:19;;;;;;;0.10;0.10;;;11.20;99.90;;;;;;4985110;28;20454;-82
2023/05/15 01:55:46;;;;;;;0.10;0.10;;;11.20;99.90;;;;;;4944968;28;20815;-83
2023/05/15 01:58:13;;;;;;;0.10;0.10;;;11.20;99.90;;;;;;4957682;28;20465;-82
2023/05/15 02:00:40;;;;;;;0.10;0.10;;;11.30;99.90;;;;;;4960830;28;20444;-83
2023/05/15 02:03:05;;;;;;;0.07;0.07;;;11.20;99.90;;;;;;4978429;28;20449;-83
2023/05/15 02:05:32;;;;;;;0.10;0.10;;;11.20;99.90;;;;;;4971715;28;21021;-83
2023/05/15 02:07:59;;;;;;;0.10;0.10;;;11.20;99.90;;;;;;4965481;28;20698;-82
2023/05/15 02:10:25;;;;;;;0.10;0.10;;;11.20;99.90;;;;;;4961437;28;20437;-83
2023/05/15 02:12:51;;;;;;;0.10;0.10;;;11.10;99.90;;;;;;4979504;28;20486;-83
2023/05/15 02:15:19;;;;;;;0.10;0.10;;;11.40;99.90;;;;;;4986378;28;20953;-82
2023/05/15 02:17:45;;;;;;;0.10;0.10;;;11.30;99.90;;;;;;4962952;28;20454;-83
2023/05/15 02:20:11;;;;;;;0.10;0.10;;;11.20;99.90;;;;;;4979320;28;20526;-82
2023/05/15 02:22:36;;;;;;;0.07;0.07;;;11.20;99.90;;;;;;4972079;28;20443;-83
2023/05/15 02:25:02;;;;;;;0.10;0.10;;;11.10;99.90;;;;;;4963476;28;20798;-83
2023/05/15 02:27:37;;;;;;;0.10;0.10;;;11.10;99.90;;;;;;4974890;28;20619;-83
2023/05/15 02:30:28;;;;;;;0.10;0.10;;;11.00;99.90;;;;;;4972492;28;20189;-82
2023/05/15 02:33:20;;;;;;;0.03;0.03;;;11.00;99.90;;;;;;4989128;28;20494;-83
2023/05/15 02:35:58;;;;;;;0.10;0.10;;;11.10;99.90;;;;;;4972878;28;20461;-82
2023/05/15 02:38:34;;;;;;;0.00;0.00;;;11.00;99.90;;;;;;4962660;28;20446;-82
2023/05/15 02:41:01;;;;;;;0.10;0.10;;;10.90;99.90;;;;;;4970400;28;20440;-82
2023/05/15 02:43:27;;;;;;;0.10;0.10;;;10.90;99.90;;;;;;4986478;28;20984;-83
2023/05/15 02:45:55;;;;;;;0.00;0.00;;;10.80;99.90;;;;;;4972466;28;20452;-82
2023/05/15 02:48:21;;;;;;;0.07;0.07;;;10.90;99.90;;;;;;4970572;28;20441;-82
2023/05/15 02:50:47;;;;;;;0.10;0.10;;;10.90;99.90;;;;;;4964849;28;20949;-83
2023/05/15 02:53:14;;;;;;;0.10;0.10;;;10.80;99.90;;;;;;4975769;28;20527;-83
2023/05/15 02:55:40;;;;;;;0.10;0.10;;;10.70;99.90;;;;;;4972580;28;20188;-83
2023/05/15 02:58:05;;;;;;;0.10;0.10;;;10.70;99.90;;;;;;4957211;28;20454;-83
2023/05/15 03:00:31;;;;;;;0.00;0.00;;;10.70;99.90;;;;;;4959680;28;20192;-83
2023/05/15 03:02:56;;;;;;;0.10;0.10;;;10.70;99.90;;;;;;4983819;28;20193;-83
2023/05/15 03:05:22;;;;;;;0.03;0.03;;;10.70;99.90;;;;;;4957771;28;21086;-82
2023/05/15 03:07:47;;;;;;;0.10;0.10;;;10.60;99.90;;;;;;4971707;28;20287;-82
2023/05/15 03:10:13;;;;;;;0.03;0.03;;;10.60;99.90;;;;;;4971639;28;20186;-83
2023/05/15 03:12:39;;;;;;;0.00;0.00;;;10.70;99.90;;;;;;4972278;28;20750;-83
2023/05/15 03:15:05;;;;;;;0.07;0.07;;;10.70;99.90;;;;;;4968587;28;20189;-83
2023/05/15 03:17:31;;;;;;;0.07;0.07;;;10.70;99.90;;;;;;4981909;28;20194;-83
2023/05/15 03:19:57;;;;;;;0.10;0.10;;;10.40;99.90;;;;;;4995128;28;20436;-82
2023/05/15 03:22:22;;;;;;;0.10;0.10;;;10.50;99.90;;;;;;4979162;28;20333;-83
2023/05/15 03:24:48;;;;;;;0.10;0.10;;;10.50;99.90;;;;;;4946895;28;20625;-83
2023/05/15 03:27:14;;;;;;;0.00;0.00;;;10.50;99.90;;;;;;4970095;28;20178;-83
2023/05/15 03:29:41;;;;;;;0.00;0.00;;;10.40;99.90;;;;;;4970276;28;20440;-83
2023/05/15 03:32:06;;;;;;;0.10;0.10;;;10.40;99.90;;;;;;4961646;28;20316;-83
2023/05/15 03:34:32;;;;;;;0.10;0.10;;;10.40;99.90;;;;;;4971626;28;20600;-83
2023/05/15 03:36:57;;;;;;;0.00;0.00;;;10.40;99.90;;;;;;4972003;28;20649;-83
2023/05/15 03:39:23;;;;;;;0.10;0.10;;;10.40;99.90;;;;;;4969666;28;20189;-83
2023/05/15 03:41:48;;;;;;;0.10;0.10;;;10.40;99.90;;;;;;4985728;28;20201;-82
2023/05/15 03:44:14;;;;;;;0.10;0.10;;;10.30;99.90;;;;;;4987413;28;20193;-83
2023/05/15 03:46:39;;;;;;;0.00;0.00;;;10.30;99.90;;;;;;4977174;28;20200;-82
2023/05/15 03:49:05;;;;;;;0.00;0.00;;;10.40;99.90;;;;;;4970975;28;20552;-83
2023/05/15 03:51:30;;;;;;;0.10;0.10;;;10.30;99.90;;;;;;4982381;28;20268;-82
2023/05/15 03:53:56;;;;;;;0.10;0.10;;;10.40;99.90;;;;;;4975286;28;20288;-83
2023/05/15 03:56:22;;;;;;;0.10;0.10;;;10.30;99.90;;;;;;4986849;28;20721;-83
2023/05/15 03:58:47;;;;;;;0.03;0.03;;;10.40;99.90;;;;;;4967446;28;20204;-82
2023/05/15 04:01:12;;;;;;;0.10;0.10;;;10.40;99.90;;;;;;4978714;28;20666;-82
2023/05/15 04:03:38;;;;;;;0.00;0.00;;;10.40;99.90;;;;;;4986408;28;20227;-82
2023/05/15 04:06:04;;;;;;;0.10;0.10;;;10.30;99.90;;;;;;4978674;28;20610;-82
2023/05/15 04:08:29;;;;;;;0.07;0.07;;;10.40;99.90;;;;;;4980755;28;20228;-82
2023/05/15 04:10:55;;;;;;;0.10;0.10;;;10.50;99.90;;;;;;4969137;28;20509;-83
2023/05/15 04:13:20;;;;;;;0.10;0.10;;;10.60;99.90;;;;;;4962741;28;20197;-83
2023/05/15 04:15:47;;;;;;;0.10;0.10;;;10.50;99.90;;;;;;4977811;28;20618;-82
2023/05/15 04:18:13;;;;;;;0.10;0.10;;;10.40;99.90;;;;;;4974874;28;20240;-82
2023/05/15 04:20:38;;;;;;;0.10;0.10;;;10.50;99.90;;;;;;4964864;28;20450;-82
2023/05/15 04:23:04;;;;;;;0.10;0.10;;;10.50;99.90;;;;;;4968161;28;20300;-82
2023/05/15 04:25:30;;;;;;;0.10;0.10;;;10.40;99.90;;;;;;4963196;28;20198;-82
2023/05/15 04:27:55;;;;;;;0.10;0.10;;;10.40;99.90;;;;;;4973193;28;20698;-82
2023/05/15 04:30:21;;;;;;;0.10;0.10;;;10.50;99.90;;;;;;4985869;28;20194;-82
2023/05/15 04:32:47;;;;;;;0.10;0.10;;;10.60;99.90;;;;;;4972901;28;21020;-82
2023/05/15 04:35:14;;;;;;;0.10;0.10;;;10.50;99.90;;;;;;4970782;28;20192;-82
2023/05/15 04:37:40;;;;;;;0.10;0.10;;;10.70;99.90;;;;;;4975195;28;20453;-82
2023/05/15 04:40:08;;;;;;;0.10;0.10;;;10.60;99.90;;;;;;4971068;28;20448;-82
2023/05/15 04:42:34;;;;;;;0.10;0.10;;;10.70;99.90;;;;;;4975058;28;20457;-82
2023/05/15 04:45:01;;;;;;;0.10;0.10;;;10.80;99.90;;;;;;4982371;28;20444;-82
2023/05/15 04:47:27;;;;;;;0.03;0.03;;;10.80;99.90;;;;;;4972413;28;20973;-82
2023/05/15 04:49:52;;;;;;;0.10;0.10;;;10.90;99.90;;;;;;4973304;28;20460;-82
2023/05/15 04:52:18;;;;;;;0.03;0.03;;;11.00;99.90;;;;;;4972066;28;20485;-82
2023/05/15 04:54:43;;;;;;;0.07;0.07;;;11.10;99.90;;;;;;4970250;28;20190;-82
2023/05/15 04:57:09;;;;;;;0.10;0.10;;;11.20;99.90;;;;;;4968549;28;20194;-83
2023/05/15 04:59:35;;;;;;;0.10;0.10;;;11.20;99.90;;;;;;4955428;28;20674;-82
2023/05/15 05:02:01;;;;;;;0.10;0.10;;;11.20;99.90;;;;;;4956534;28;20969;-82
2023/05/15 05:04:27;;;;;;;0.07;0.07;;;11.20;99.90;;;;;;4961333;28;20190;-83
2023/05/15 05:06:53;;;;;;;0.10;0.10;;;11.30;99.90;;;;;;4962814;28;20464;-82
2023/05/15 05:09:19;;;;;;;0.00;0.00;;;11.40;99.90;;;;;;4962329;28;21142;-82
2023/05/15 05:11:46;;;;;;;0.10;0.10;;;11.30;99.90;;;;;;4981731;28;20213;-82
2023/05/15 05:14:13;;;;;;;0.03;0.03;;;11.50;99.90;;;;;;4988990;28;20468;-85
2023/05/15 05:16:38;;;;;;;0.00;0.00;;;11.60;99.90;;;;;;4976935;28;20456;-84
2023/05/15 05:19:05;;;;;;;0.10;0.10;;;11.70;99.90;;;;;;4973909;28;20504;-84
2023/05/15 05:21:31;;;;;;;0.10;0.10;;;11.90;99.90;;;;;;4964662;28;20732;-85
2023/05/15 05:23:57;;;;;;;0.10;0.10;;;12.00;99.90;;;;;;4972377;28;20457;-84
2023/05/15 05:26:22;;;;;;;0.10;0.10;;;12.20;99.90;;;;;;4972457;28;21011;-83
2023/05/15 05:28:48;;;;;;;0.10;0.10;;;12.30;99.90;;;;;;4971182;28;20187;-83
2023/05/15 05:31:14;;;;;;;0.10;0.10;;;12.30;99.90;;;;;;4970455;28;20214;-83
2023/05/15 05:33:39;;;;;;;0.00;0.00;;;12.40;99.90;;;;;;4964561;28;22122;-84
2023/05/15 05:36:05;;;;;;;0.00;0.00;;;12.70;99.90;;;;;;4970104;28;20638;-85
2023/05/15 05:38:31;;;;;;;0.03;0.03;;;12.80;99.90;;;;;;4972504;28;20197;-84
2023/05/15 05:40:57;;;;;;;0.03;0.03;;;12.90;99.90;;;;;;4986076;28;20542;-84
2023/05/15 05:43:25;;;;;;;0.00;0.00;;;13.10;99.90;;;;;;4983031;28;20452;-84
2023/05/15 05:45:50;;;;;;;0.07;0.07;;;13.20;99.90;;;;;;4980619;28;20192;-84
2023/05/15 05:48:16;;;;;;;0.00;0.00;;;13.10;99.90;;;;;;4977923;28;20449;-84
2023/05/15 05:50:41;;;;;;;0.10;0.10;;;13.20;99.90;;;;;;4972270;28;20182;-85
2023/05/15 05:53:07;;;;;;;0.00;0.00;;;13.10;99.90;;;;;;4960720;28;20714;-84
2023/05/15 05:55:32;;;;;;;0.00;0.00;;;12.90;99.90;;;;;;4966926;28;20182;-84
2023/05/15 05:57:58;;;;;;;0.03;0.03;;;13.00;99.90;;;;;;4980681;28;20185;-84
2023/05/15 06:00:24;;;;;;;0.00;0.00;;;13.00;99.90;;;;;;4978017;28;20198;-84
2023/05/15 06:02:55;;;;;;;0.00;0.00;;;12.90;99.90;;;;;;4975739;28;20200;-84
2023/05/15 06:05:22;;;;;;;0.03;0.03;;;13.00;99.90;;;;;;4983768;28;20447;-84
2023/05/15 06:07:48;;;;;;;0.00;0.00;;;13.20;99.90;;;;;;4973135;28;20574;-83
2023/05/15 06:10:13;;;;;;;0.00;0.00;;;13.20;99.90;;;;;;4973900;28;20528;-84
2023/05/15 06:12:39;;;;;;;0.00;0.00;;;13.40;99.90;;;;;;4978811;28;20233;-83
2023/05/15 06:15:05;;;;;;;0.00;0.00;;;13.40;99.90;;;;;;4960439;28;20668;-82
2023/05/15 06:17:31;;;;;;;0.00;0.00;;;13.70;99.90;;;;;;4965366;28;20185;-83
2023/05/15 06:19:56;;;;;;;0.00;0.00;;;13.80;99.90;;;;;;4970159;28;20536;-83
2023/05/15 06:22:22;;;;;;;0.00;0.00;;;13.80;99.90;;;;;;4968240;28;20196;-83
2023/05/15 06:24:47;;;;;;;0.10;0.10;;;13.90;99.90;;;;;;4964486;28;20194;-83
2023/05/15 06:27:13;;;;;;;0.00;0.00;;;14.00;99.90;;;;;;4967057;28;20202;-82
2023/05/15 06:29:38;;;;;;;0.00;0.00;;;14.30;99.90;;;;;;4969957;28;20272;-82
2023/05/15 06:32:05;;;;;;;0.00;0.00;;;14.20;99.90;;;;;;4984249;28;20221;-85
2023/05/15 06:34:30;;;;;;;0.03;0.03;;;14.50;99.90;;;;;;4960248;28;20183;-88
2023/05/15 06:36:56;;;;;;;0.00;0.00;;;14.70;99.90;;;;;;4991065;28;20456;-86
2023/05/15 06:39:21;;;;;;;0.00;0.00;;;14.80;99.90;;;;;;4973605;28;20196;-84
2023/05/15 06:41:47;;;;;;;0.00;0.00;;;15.00;99.90;;;;;;4996109;28;20225;-84
2023/05/15 06:44:12;;;;;;;0.00;0.00;;;15.10;99.90;;;;;;4981583;28;20198;-84
2023/05/15 06:46:38;;;;;;;0.00;0.00;;;15.30;99.90;;;;;;4971902;28;20239;-85
2023/05/15 06:49:03;;;;;;;0.00;0.00;;;15.30;99.90;;;;;;4987288;28;20256;-86
2023/05/15 06:51:29;;;;;;;0.00;0.00;;;15.40;99.90;;;;;;4962470;28;20225;-85
2023/05/15 06:53:55;;;;;;;0.00;0.00;;;15.50;99.90;;;;;;4981802;28;20191;-86
2023/05/15 06:56:20;;;;;;;0.00;0.00;;;15.70;99.90;;;;;;4964433;28;20489;-85
2023/05/15 06:58:46;;;;;;;0.00;0.00;;;15.80;99.90;;;;;;4968143;28;20202;-86
2023/05/15 07:01:12;;;;;;;0.00;0.00;;;16.00;99.90;;;;;;4937191;28;20194;-85
2023/05/15 07:03:37;;;;;;;0.00;0.00;;;16.20;99.90;;;;;;4973932;28;20197;-83
2023/05/15 07:06:03;;;;;;;0.00;0.00;;;16.20;99.90;;;;;;4971000;28;20189;-84
2023/05/15 07:08:28;;;;;;;0.00;0.00;;;16.50;99.90;;;;;;4964241;28;20229;-85
2023/05/15 07:10:54;;;;;;;0.00;0.00;;;16.50;99.90;;;;;;4970758;28;20700;-82
2023/05/15 07:13:20;;;;;;;0.00;0.00;;;16.70;99.90;;;;;;4978175;28;20201;-88
2023/05/15 07:15:45;;;;;;;0.00;0.00;;;17.00;99.90;;;;;;4969815;28;20651;-83
2023/05/15 07:18:11;;;;;;;0.00;0.00;;;16.70;99.90;;;;;;4978353;28;20637;-83
2023/05/15 07:20:37;;;;;;;0.00;0.00;;;16.90;99.90;;;;;;4972567;28;20263;-84
2023/05/15 07:23:03;;;;;;;0.00;0.00;;;16.90;99.90;;;;;;4966623;28;20698;-84
2023/05/15 07:25:29;;;;;;;0.00;0.00;;;17.00;99.90;;;;;;4980451;28;22150;-84
2023/05/15 07:27:54;;;;;;;0.00;0.00;;;17.10;99.90;;;;;;4977985;28;20446;-84
2023/05/15 07:30:20;;;;;;;0.00;0.00;;;17.40;99.90;;;;;;4980362;28;20281;-85
2023/05/15 07:32:45;;;;;;;0.00;0.00;;;17.50;99.90;;;;;;4972167;28;20233;-85
2023/05/15 07:35:11;;;;;;;0.00;0.00;;;17.70;99.90;;;;;;4960473;28;20825;-84
2023/05/15 07:37:37;;;;;;;0.00;0.00;;;17.40;99.90;;;;;;4991074;28;20821;-84
2023/05/15 07:40:03;;;;;;;0.00;0.00;;;17.50;99.90;;;;;;4977013;28;20204;-84
2023/05/15 07:42:29;;;;;;;0.00;0.00;;;17.80;99.90;;;;;;4976701;28;20467;-84
2023/05/15 07:44:54;;;;;;;0.00;0.00;;;18.00;99.90;;;;;;4973472;28;20508;-84
2023/05/15 07:47:20;;;;;;;0.00;0.00;;;18.10;99.90;;;;;;4949683;28;20749;-84
2023/05/15 07:49:45;;;;;;;0.00;0.00;;;18.10;99.90;;;;;;4964090;28;20196;-84
2023/05/15 07:52:11;;;;;;;0.00;0.00;;;18.10;99.90;;;;;;4966955;28;20247;-84
2023/05/15 07:54:38;;;;;;;0.00;0.00;;;18.40;99.90;;;;;;4980967;28;20820;-82
2023/05/15 07:57:04;;;;;;;0.00;0.00;;;18.50;99.90;;;;;;4965418;28;20200;-84
2023/05/15 07:59:29;;;;;;;0.00;0.00;;;18.60;99.90;;;;;;4962105;28;20841;-85
2023/05/15 08:01:55;;;;;;;0.00;0.00;;;18.80;99.90;;;;;;4952921;28;20200;-84
2023/05/15 08:04:20;;;;;;;0.00;0.00;;;18.90;99.90;;;;;;4971144;28;20179;-85
2023/05/15 08:06:46;;;;;;;0.00;0.00;;;19.10;99.90;;;;;;4971331;28;20189;-85
2023/05/15 08:09:12;;;;;;;0.00;0.00;;;19.30;99.90;;;;;;4970759;28;20808;-84
2023/05/15 08:11:37;;;;;;;0.00;0.00;;;19.40;99.90;;;;;;4974720;28;20285;-84
2023/05/15 08:14:03;;;;;;;0.00;0.00;;;19.20;99.90;;;;;;4966175;28;20225;-85
2023/05/15 08:16:28;;;;;;;0.00;0.00;;;19.20;99.90;;;;;;4961236;28;20237;-85
2023/05/15 08:18:59;;;;;;;0.00;0.00;;;19.40;99.90;;;;;;4953701;28;20721;-84
2023/05/15 08:21:25;;;;;;;0.00;0.00;;;19.60;99.90;;;;;;4966571;28;20191;-85
2023/05/15 08:23:51;;;;;;;0.00;0.00;;;20.00;99.90;;;;;;4984561;28;21048;-85
2023/05/15 08:26:16;;;;;;;0.00;0.00;;;20.20;99.90;;;;;;4964637;28;20442;-84
2023/05/15 08:28:42;;;;;;;0.00;0.00;;;20.20;99.90;;;;;;4965948;28;20220;-83
2023/05/15 08:31:07;;;;;;;0.00;0.00;;;20.10;99.90;;;;;;4985899;28;20217;-83
2023/05/15 08:33:33;;;;;;;0.00;0.00;;;20.20;99.90;;;;;;4985361;28;20628;-83
2023/05/15 08:35:58;;;;;;;0.00;0.00;;;20.30;99.90;;;;;;4973910;28;20240;-83
2023/05/15 08:38:24;;;;;;;0.00;0.00;;;20.30;99.90;;;;;;4967935;28;20194;-84
2023/05/15 08:40:52;;;;;;;0.00;0.00;;;20.30;99.90;;;;;;4959374;28;20189;-84
2023/05/15 08:43:21;;;;;;;0.00;0.00;;;20.40;99.90;;;;;;4948652;28;20201;-84
2023/05/15 08:45:48;;;;;;;0.00;0.00;;;20.50;99.90;;;;;;4953227;28;20445;-85
2023/05/15 08:48:16;;;;;;;0.00;0.00;;;20.80;99.90;;;;;;4976863;28;20455;-83
2023/05/15 08:50:43;;;;;;;0.00;0.00;;;20.70;99.90;;;;;;4943101;28;20450;-83
2023/05/15 08:53:11;;;;;;;0.00;0.00;;;20.90;99.90;;;;;;4980610;28;20634;-84
2023/05/15 08:55:37;;;;;;;0.00;0.00;;;21.00;99.90;;;;;;4967920;28;20443;-84
2023/05/15 08:58:02;;;;;;;0.00;0.00;;;20.90;99.90;;;;;;4968727;28;20448;-83
2023/05/15 09:00:29;;;;;;;0.00;0.00;;;20.70;99.90;;;;;;4972484;28;20186;-84
2023/05/15 09:02:58;;;;;;;0.00;0.00;;;20.90;99.90;;;;;;4972025;28;20181;-84
2023/05/15 09:05:23;;;;;;;0.00;0.00;;;21.00;99.90;;;;;;4964687;28;20935;-84
2023/05/15 09:07:51;;;;;;;0.00;0.00;;;21.30;99.90;;;;;;4970144;28;20487;-84
2023/05/15 09:10:18;;;;;;;0.00;0.00;;;21.30;99.90;;;;;;4973211;28;20553;-84
2023/05/15 09:12:43;;;;;;;0.00;0.00;;;21.30;99.90;;;;;;4979898;28;20499;-83
2023/05/15 09:15:17;;;;;;;0.00;0.00;;;21.70;99.90;;;;;;4973755;28;20429;-84
2023/05/15 09:17:44;;;;;;;0.00;0.00;;;22.10;99.90;;;;;;4986554;28;20193;-84
2023/05/15 09:20:36;;;;;;;0.00;0.00;;;21.90;99.90;;;;;;4981049;28;20421;-84
2023/05/15 09:23:04;;;;;;;0.00;0.00;;;21.60;99.90;;;;;;4974789;28;20514;-83
2023/05/15 09:25:39;;;;;;;0.00;0.00;;;21.60;99.90;;;;;;4978599;28;20437;-84
2023/05/15 09:28:08;;;;;;;0.00;0.00;;;21.10;99.90;;;;;;4974728;28;20452;-84
2023/05/15 09:30:37;;;;;;;0.00;0.00;;;20.80;99.90;;;;;;4972068;28;20799;-83
2023/05/15 09:33:03;;;;;;;0.00;0.00;;;20.70;99.90;;;;;;4971969;28;20536;-83
2023/05/15 09:35:37;;;;;;;0.00;0.00;;;20.60;99.90;;;;;;4955371;28;20496;-83
2023/05/15 09:38:12;;;;;;;0.00;0.00;;;20.60;99.90;;;;;;4956094;28;20464;-83
2023/05/15 09:40:39;;;;;;;0.00;0.00;;;20.50;99.90;;;;;;4956961;28;20499;-84
2023/05/15 09:43:05;;;;;;;0.00;0.00;;;20.50;99.90;;;;;;4974220;28;20448;-83
2023/05/15 09:45:30;;;;;;;0.00;0.00;;;20.50;99.90;;;;;;4955471;28;20442;-84
2023/05/15 09:47:58;;;;;;;0.00;0.00;;;20.60;99.90;;;;;;4955118;28;20191;-84
2023/05/15 09:50:35;;;;;;;0.00;0.00;;;20.90;99.90;;;;;;4961660;28;20189;-83
2023/05/15 09:53:00;;;;;;;0.00;0.00;;;21.00;99.90;;;;;;4966164;28;20487;-83
2023/05/15 09:55:26;;;;;;;0.00;0.00;;;21.30;99.90;;;;;;4971800;28;21024;-84
2023/05/15 09:58:22;;;;;;;0.00;0.00;;;21.10;99.90;;;;;;4969337;28;20258;-83
2023/05/15 10:00:47;;;;;;;0.00;0.00;;;20.80;99.90;;;;;;4961722;28;20278;-83
2023/05/15 10:03:13;;;;;;;0.00;0.00;;;21.20;99.90;;;;;;4958566;28;20561;-83
2023/05/15 10:05:39;;;;;;;0.00;0.00;;;21.10;99.90;;;;;;4961777;28;20198;-83
2023/05/15 10:08:05;;;;;;;0.00;0.00;;;20.90;99.90;;;;;;4971238;28;20233;-83
2023/05/15 10:10:31;;;;;;;0.00;0.00;;;21.20;99.90;;;;;;4967522;28;20199;-83
2023/05/15 10:13:02;;;;;;;0.00;0.00;;;21.20;99.90;;;;;;4958661;28;20589;-84
2023/05/15 10:15:28;;;;;;;0.00;0.00;;;21.50;99.90;;;;;;4964913;28;20450;-84
2023/05/15 10:17:54;;;;;;;0.00;0.00;;;21.70;99.90;;;;;;4963810;28;20465;-82
2023/05/15 10:20:22;;;;;;;0.00;0.00;;;21.30;99.90;;;;;;4968355;28;20186;-83
2023/05/15 10:22:50;;;;;;;0.00;0.00;;;21.50;99.90;;;;;;4969778;28;20457;-83
2023/05/15 10:25:31;;;;;;;0.00;0.00;;;21.60;99.90;;;;;;4972910;28;20460;-83
2023/05/15 10:27:58;;;;;;;0.00;0.00;;;21.60;99.90;;;;;;4969672;28;20449;-83
2023/05/15 10:30:25;;;;;;;0.00;0.00;;;21.70;99.90;;;;;;4964260;28;20464;-83
2023/05/15 10:32:51;;;;;;;0.00;0.00;;;21.80;99.90;;;;;;4959302;28;20493;-83
2023/05/15 10:35:17;;;;;;;0.00;0.00;;;22.30;99.90;;;;;;4955157;28;20418;-81
2023/05/15 10:37:47;;;;;;;0.00;0.00;;;22.80;99.90;;;;;;4954051;28;20504;-82
2023/05/15 10:40:14;;;;;;;0.00;0.00;;;22.90;99.90;;;;;;4940714;28;20190;-81
2023/05/15 10:42:46;;;;;;;0.00;0.00;;;23.40;99.90;;;;;;4973916;28;20452;-81
2023/05/15 10:45:12;;;;;;;0.00;0.00;;;23.50;99.90;;;;;;4971473;28;20445;-81
2023/05/15 10:47:40;;;;;;;0.00;0.00;;;23.70;99.90;;;;;;4948653;28;21006;-82
2023/05/15 10:50:06;;;;;;;0.00;0.00;;;23.50;99.90;;;;;;4964997;28;20445;-82
2023/05/15 10:52:32;;;;;;;0.00;0.00;;;23.30;99.90;;;;;;4966471;28;20930;-82
2023/05/15 10:54:58;;;;;;;0.00;0.00;;;23.30;99.90;;;;;;4953465;28;20445;-81
2023/05/15 10:57:24;;;;;;;0.00;0.00;;;23.10;99.90;;;;;;4965436;28;20945;-81
2023/05/15 10:59:50;;;;;;;0.00;0.00;;;23.10;99.90;;;;;;4973873;28;20421;-82
2023/05/15 11:02:22;;;;;;;0.00;0.00;;;22.70;99.90;;;;;;4967511;28;20198;-81
2023/05/15 11:04:53;;;;;;;0.00;0.00;;;22.70;99.90;;;;;;4972841;28;20194;-82
2023/05/15 11:07:19;;;;;;;0.00;0.00;;;22.70;99.90;;;;;;4981997;28;20857;-83
2023/05/15 11:09:44;;;;;;;0.00;0.00;;;22.90;99.90;;;;;;4970459;28;20433;-83
2023/05/15 11:12:10;;;;;;;0.00;0.00;;;23.10;99.90;;;;;;4970944;28;20534;-82
2023/05/15 11:15:02;;;;;;;0.00;0.00;;;23.70;99.90;;;;;;4962783;28;20178;-82
2023/05/15 11:17:31;;;;;;;0.00;0.00;;;24.30;99.90;;;;;;4977556;28;20201;-82
2023/05/15 11:19:58;;;;;;;0.00;0.00;;;25.00;99.90;;;;;;4951908;28;20450;-82
2023/05/15 11:22:37;;;;;;;0.00;0.00;;;25.10;99.90;;;;;;4968667;28;20438;-82
2023/05/15 11:25:11;;;;;;;0.00;0.00;;;25.50;99.90;;;;;;4954275;28;20426;-82
2023/05/15 11:27:41;;;;;;;0.00;0.00;;;25.30;99.90;;;;;;4978320;28;20439;-82
2023/05/15 11:30:10;;;;;;;0.00;0.00;;;25.50;99.90;;;;;;4992937;28;20905;-83
2023/05/15 11:32:43;;;;;;;0.00;0.00;;;25.10;99.90;;;;;;5002328;28;20485;-82
2023/05/15 11:35:17;;;;;;;0.00;0.00;;;25.10;99.90;;;;;;4971714;28;20437;-81
2023/05/15 11:37:46;;;;;;;0.00;0.00;;;25.40;99.90;;;;;;4955438;28;20445;-83
2023/05/15 11:40:26;;;;;;;0.00;0.00;;;25.00;99.90;;;;;;4974171;28;20417;-82
2023/05/15 11:43:08;;;;;;;0.00;0.00;;;24.10;99.90;;;;;;4960184;28;20446;-84
2023/05/15 11:45:37;;;;;;;0.00;0.00;;;23.40;99.90;;;;;;4954652;28;20469;-82
2023/05/15 11:48:05;;;;;;;0.00;0.00;;;23.10;99.90;;;;;;4954921;28;20457;-82
2023/05/15 11:50:32;;;;;;;0.00;0.00;;;22.70;99.90;;;;;;4972664;28;20451;-82
2023/05/15 11:53:05;;;;;;;0.00;0.00;;;22.40;99.90;;;;;;4992164;28;20480;-82
2023/05/15 11:55:33;;;;;;;0.00;0.00;;;22.30;99.90;;;;;;4991817;28;20901;-82
2023/05/15 11:57:59;;;;;;;0.00;0.00;;;22.10;99.90;;;;;;4980961;28;20882;-82
2023/05/15 12:00:25;;;;;;;0.00;0.00;;;21.70;99.90;;;;;;4970356;28;20492;-81
2023/05/15 12:02:50;;;;;;;0.00;0.00;;;21.80;99.90;;;;;;4986223;28;20454;-82
2023/05/15 12:05:16;;;;;;;0.00;0.00;;;21.80;99.90;;;;;;4975561;28;20714;-82
2023/05/15 12:07:43;;;;;;;0.00;0.00;;;21.70;99.90;;;;;;4973511;28;20245;-84
2023/05/15 12:10:10;;;;;;;0.00;0.00;;;21.60;99.90;;;;;;4987293;28;20774;-84
2023/05/15 12:12:44;;;;;;;0.00;0.00;;;21.50;99.90;;;;;;4972743;28;20571;-84
2023/05/15 12:15:11;;;;;;;0.00;0.00;;;21.30;99.90;;;;;;4955261;28;20433;-84
2023/05/15 12:17:39;;;;;;;0.00;0.00;;;21.40;99.90;;;;;;4972800;28;20480;-84
2023/05/15 12:20:07;;;;;;;0.00;0.00;;;21.30;99.90;;;;;;4973093;28;20450;-84
2023/05/15 12:22:40;;;;;;;0.00;0.00;;;21.40;99.90;;;;;;4971667;28;20435;-84
2023/05/15 12:25:06;;;;;;;0.00;0.00;;;21.40;98.30;;;;;;4967070;28;20446;-84
2023/05/15 12:27:33;;;;;;;0.00;0.00;;;21.30;98.30;;;;;;4953031;28;20414;-82
2023/05/15 12:30:00;;;;;;;0.00;0.00;;;21.10;96.00;;;;;;4935358;29;20498;-83
2023/05/15 12:32:26;;;;;;;0.00;0.00;;;21.10;97.20;;;;;;4939864;28;20828;-84
2023/05/15 12:34:52;;;;;;;0.00;0.00;;;21.10;98.80;;;;;;4960159;28;20472;-84
2023/05/15 12:37:22;;;;;;;0.00;0.00;;;21.10;99.00;;;;;;4954351;28;20189;-84
2023/05/15 12:39:52;;;;;;;0.00;0.00;;;21.00;98.30;;;;;;4967779;28;20452;-84
2023/05/15 12:42:18;;;;;;;0.00;0.00;;;21.00;99.50;;;;;;4968855;28;20471;-85
2023/05/15 12:44:43;;;;;;;0.00;0.00;;;21.20;99.90;;;;;;4971427;28;20508;-84
2023/05/15 12:47:12;;;;;;;0.00;0.00;;;21.10;96.30;;;;;;4970343;28;20616;-85
2023/05/15 12:49:39;;;;;;;0.00;0.00;;;21.10;99.90;;;;;;4961879;28;20206;-85